sensor_id;sensor_type;location;lat;lon;timestamp;temperature;humidity
24902;DHT22;31328;51.402;0.016;2023-05-10T00:01:42;12.70;99.90
24902;DHT22;31328;51.402;0.016;2023-05-10T00:04:09;12.70;99.90
24902;DHT22;31328;51.402;0.016;2023-05-10T00:06:35;12.70;99.90
24902;DHT22;31328;51.402;0.016;2023-05-10T00:09:02;12.70;99.90
24902;DHT22;31328;51.402;0.016;2023-05-10T00:11:29;12.60;99.90
24902;DHT22;31328;51.402;0.016;2023-05-10T00:13:55;12.60;99.90
24902;DHT22;31328;51.402;0.016;2023-05-10T00:16:22;12.60;99.90
24902;DHT22;31328;51.402;0.016;2023-05-10T00:18:48;12.60;99.90
24902;DHT22;31328;51.402;0.016;2023-05-10T00:21:15;12.60;99.90
24902;DHT22;31328;51.402;0.016;2023-05-10T00:23:41;12.60;99.90
24902;DHT22;31328;51.402;0.016;2023-05-10T00:26:07;12.60;99.90
24902;DHT22;31328;51.402;0.016;2023-05-10T00:28:34;12.60;99.90
24902;DHT22;31328;51.402;0.016;2023-05-10T00:31:00;12.60;99.90
24902;DHT22;31328;51.402;0.016;2023-05-10T00:33:26;12.50;99.90
24902;DHT22;31328;51.402;0.016;2023-05-10T00:35:53;12.50;99.90
24902;DHT22;31328;51.402;0.016;2023-05-10T00:38:19;12.50;99.90
24902;DHT22;31328;51.402;0.016;2023-05-10T00:40:46;12.50;99.90
24902;DHT22;31328;51.402;0.016;2023-05-10T00:43:20;12.50;99.90
24902;DHT22;31328;51.402;0.016;2023-05-10T00:45:47;12.50;99.90
24902;DHT22;31328;51.402;0.016;2023-05-10T00:48:14;12.50;99.90
24902;DHT22;31328;51.402;0.016;2023-05-10T00:50:40;12.60;99.90
24902;DHT22;31328;51.402;0.016;2023-05-10T00:53:07;12.60;99.90
24902;DHT22;31328;51.402;0.016;2023-05-10T00:55:34;12.60;99.90
24902;DHT22;31328;51.402;0.016;2023-05-10T00:58:00;12.60;99.90
24902;DHT22;31328;51.402;0.016;2023-05-10T01:00:27;12.60;99.90
24902;DHT22;31328;51.402;0.016;2023-05-10T01:02:54;12.70;99.90
24902;DHT22;31328;51.402;0.016;2023-05-10T01:05:22;12.70;99.90
24902;DHT22;31328;51.402;0.016;2023-05-10T01:07:48;12.70;99.90
24902;DHT22;31328;51.402;0.016;2023-05-10T01:10:15;12.70;99.90
24902;DHT22;31328;51.402;0.016;2023-05-10T01:12:43;12.70;99.90
24902;DHT22;31328;51.402;0.016;2023-05-10T01:15:11;12.70;99.90
24902;DHT22;31328;51.402;0.016;2023-05-10T01:17:40;12.70;99.90
24902;DHT22;31328;51.402;0.016;2023-05-10T01:20:09;12.70;99.90
24902;DHT22;31328;51.402;0.016;2023-05-10T01:31:08;12.80;99.90
24902;DHT22;31328;51.402;0.016;2023-05-10T01:36:27;12.80;99.90
24902;DHT22;31328;51.402;0.016;2023-05-10T01:39:02;12.80;99.90
24902;DHT22;31328;51.402;0.016;2023-05-10T01:41:52;12.90;99.90
24902;DHT22;31328;51.402;0.016;2023-05-10T01:44:35;12.90;99.90
24902;DHT22;31328;51.402;0.016;2023-05-10T01:47:22;12.90;99.90
24902;DHT22;31328;51.402;0.016;2023-05-10T01:49:55;12.90;99.90
24902;DHT22;31328;51.402;0.016;2023-05-10T01:52:28;12.90;99.90
24902;DHT22;31328;51.402;0.016;2023-05-10T01:55:02;12.90;99.90
24902;DHT22;31328;51.402;0.016;2023-05-10T01:57:34;12.90;99.90
24902;DHT22;31328;51.402;0.016;2023-05-10T02:00:02;12.90;99.90
24902;DHT22;31328;51.402;0.016;2023-05-10T02:02:44;12.90;99.90
24902;DHT22;31328;51.402;0.016;2023-05-10T02:05:13;12.90;99.90
24902;DHT22;31328;51.402;0.016;2023-05-10T02:07:41;12.90;99.90
24902;DHT22;31328;51.402;0.016;2023-05-10T02:10:09;12.90;99.90
24902;DHT22;31328;51.402;0.016;2023-05-10T02:12:39;12.90;99.90
24902;DHT22;31328;51.402;0.016;2023-05-10T02:15:08;12.90;99.90
24902;DHT22;31328;51.402;0.016;2023-05-10T02:17:37;12.90;99.90
24902;DHT22;31328;51.402;0.016;2023-05-10T02:20:08;12.90;99.90
24902;DHT22;31328;51.402;0.016;2023-05-10T02:22:37;12.80;99.90
24902;DHT22;31328;51.402;0.016;2023-05-10T02:25:05;12.80;99.90
24902;DHT22;31328;51.402;0.016;2023-05-10T02:27:33;12.80;99.90
24902;DHT22;31328;51.402;0.016;2023-05-10T02:30:01;12.70;99.90
24902;DHT22;31328;51.402;0.016;2023-05-10T02:32:28;12.70;99.90
24902;DHT22;31328;51.402;0.016;2023-05-10T02:34:57;12.70;99.90
24902;DHT22;31328;51.402;0.016;2023-05-10T02:37:25;12.70;99.90
24902;DHT22;31328;51.402;0.016;2023-05-10T02:39:55;12.60;99.90
24902;DHT22;31328;51.402;0.016;2023-05-10T02:42:26;12.60;99.90
24902;DHT22;31328;51.402;0.016;2023-05-10T02:44:59;12.70;99.90
24902;DHT22;31328;51.402;0.016;2023-05-10T02:47:26;12.60;99.90
24902;DHT22;31328;51.402;0.016;2023-05-10T02:49:54;12.60;99.90
24902;DHT22;31328;51.402;0.016;2023-05-10T02:52:27;12.60;99.90
24902;DHT22;31328;51.402;0.016;2023-05-10T02:55:01;12.60;99.90
24902;DHT22;31328;51.402;0.016;2023-05-10T02:57:29;12.60;99.90
24902;DHT22;31328;51.402;0.016;2023-05-10T02:59:57;12.60;99.90
24902;DHT22;31328;51.402;0.016;2023-05-10T03:02:25;12.60;99.90
24902;DHT22;31328;51.402;0.016;2023-05-10T03:04:51;12.50;99.90
24902;DHT22;31328;51.402;0.016;2023-05-10T03:07:18;12.50;99.90
24902;DHT22;31328;51.402;0.016;2023-05-10T03:09:48;12.60;99.90
24902;DHT22;31328;51.402;0.016;2023-05-10T03:12:39;12.60;99.90
24902;DHT22;31328;51.402;0.016;2023-05-10T03:15:19;12.50;99.90
24902;DHT22;31328;51.402;0.016;2023-05-10T03:17:55;12.50;99.90
24902;DHT22;31328;51.402;0.016;2023-05-10T03:20:44;12.60;99.90
24902;DHT22;31328;51.402;0.016;2023-05-10T03:24:21;12.50;99.90
24902;DHT22;31328;51.402;0.016;2023-05-10T03:26:24;12.50;99.90
24902;DHT22;31328;51.402;0.016;2023-05-10T03:28:57;12.50;99.90
24902;DHT22;31328;51.402;0.016;2023-05-10T03:31:25;12.50;99.90
24902;DHT22;31328;51.402;0.016;2023-05-10T03:33:52;12.50;99.90
24902;DHT22;31328;51.402;0.016;2023-05-10T03:36:23;12.50;99.90
24902;DHT22;31328;51.402;0.016;2023-05-10T03:38:50;12.50;99.90
24902;DHT22;31328;51.402;0.016;2023-05-10T03:41:17;12.50;99.90
24902;DHT22;31328;51.402;0.016;2023-05-10T03:43:44;12.50;99.90
24902;DHT22;31328;51.402;0.016;2023-05-10T03:46:10;12.50;99.90
24902;DHT22;31328;51.402;0.016;2023-05-10T03:48:36;12.50;99.90
24902;DHT22;31328;51.402;0.016;2023-05-10T03:51:03;12.50;99.90
24902;DHT22;31328;51.402;0.016;2023-05-10T03:53:30;12.50;99.90
24902;DHT22;31328;51.402;0.016;2023-05-10T03:55:56;12.50;99.90
24902;DHT22;31328;51.402;0.016;2023-05-10T03:58:23;12.50;99.90
24902;DHT22;31328;51.402;0.016;2023-05-10T04:00:51;12.50;99.90
24902;DHT22;31328;51.402;0.016;2023-05-10T04:03:18;12.50;99.90
24902;DHT22;31328;51.402;0.016;2023-05-10T04:05:44;12.50;99.90
24902;DHT22;31328;51.402;0.016;2023-05-10T04:08:11;12.50;99.90
24902;DHT22;31328;51.402;0.016;2023-05-10T04:10:38;12.40;99.90
24902;DHT22;31328;51.402;0.016;2023-05-10T04:13:04;12.40;99.90
24902;DHT22;31328;51.402;0.016;2023-05-10T04:15:31;12.40;99.90
24902;DHT22;31328;51.402;0.016;2023-05-10T04:17:57;12.40;99.90
24902;DHT22;31328;51.402;0.016;2023-05-10T04:20:24;12.40;99.90
24902;DHT22;31328;51.402;0.016;2023-05-10T04:22:50;12.40;99.90
24902;DHT22;31328;51.402;0.016;2023-05-10T04:25:16;12.40;99.90
24902;DHT22;31328;51.402;0.016;2023-05-10T04:27:43;12.40;99.90
24902;DHT22;31328;51.402;0.016;2023-05-10T04:30:09;12.30;99.90
24902;DHT22;31328;51.402;0.016;2023-05-10T04:32:36;12.30;99.90
24902;DHT22;31328;51.402;0.016;2023-05-10T04:35:03;12.20;99.90
24902;DHT22;31328;51.402;0.016;2023-05-10T04:37:31;12.20;99.90
24902;DHT22;31328;51.402;0.016;2023-05-10T04:39:57;12.20;99.90
24902;DHT22;31328;51.402;0.016;2023-05-10T04:42:23;12.10;99.90
24902;DHT22;31328;51.402;0.016;2023-05-10T04:44:50;12.10;99.90
24902;DHT22;31328;51.402;0.016;2023-05-10T04:47:17;12.10;99.90
24902;DHT22;31328;51.402;0.016;2023-05-10T04:49:44;12.10;99.90
24902;DHT22;31328;51.402;0.016;2023-05-10T04:52:10;12.00;99.90
24902;DHT22;31328;51.402;0.016;2023-05-10T04:54:37;12.00;99.90
24902;DHT22;31328;51.402;0.016;2023-05-10T04:57:03;12.00;99.90
24902;DHT22;31328;51.402;0.016;2023-05-10T04:59:30;12.00;99.90
24902;DHT22;31328;51.402;0.016;2023-05-10T05:01:56;12.00;99.90
24902;DHT22;31328;51.402;0.016;2023-05-10T05:04:22;12.00;99.90
24902;DHT22;31328;51.402;0.016;2023-05-10T05:06:50;12.00;99.90
24902;DHT22;31328;51.402;0.016;2023-05-10T05:09:16;12.00;99.90
24902;DHT22;31328;51.402;0.016;2023-05-10T05:11:42;12.00;99.90
24902;DHT22;31328;51.402;0.016;2023-05-10T05:14:09;12.00;99.90
24902;DHT22;31328;51.402;0.016;2023-05-10T05:16:35;12.00;99.90
24902;DHT22;31328;51.402;0.016;2023-05-10T05:19:02;12.00;99.90
24902;DHT22;31328;51.402;0.016;2023-05-10T05:21:28;12.00;99.90
24902;DHT22;31328;51.402;0.016;2023-05-10T05:23:55;12.00;99.90
24902;DHT22;31328;51.402;0.016;2023-05-10T05:26:21;12.00;99.90
24902;DHT22;31328;51.402;0.016;2023-05-10T05:28:47;12.00;99.90
24902;DHT22;31328;51.402;0.016;2023-05-10T05:31:14;12.00;99.90
24902;DHT22;31328;51.402;0.016;2023-05-10T05:33:41;12.00;99.90
24902;DHT22;31328;51.402;0.016;2023-05-10T05:36:07;12.00;99.90
24902;DHT22;31328;51.402;0.016;2023-05-10T05:38:34;12.00;99.90
24902;DHT22;31328;51.402;0.016;2023-05-10T05:41:00;12.10;99.90
24902;DHT22;31328;51.402;0.016;2023-05-10T05:43:27;12.10;99.90
24902;DHT22;31328;51.402;0.016;2023-05-10T05:45:53;12.20;99.90
24902;DHT22;31328;51.402;0.016;2023-05-10T05:48:20;12.20;99.90
24902;DHT22;31328;51.402;0.016;2023-05-10T05:50:47;12.30;99.90
24902;DHT22;31328;51.402;0.016;2023-05-10T05:53:13;12.40;99.90
24902;DHT22;31328;51.402;0.016;2023-05-10T05:55:39;12.40;99.90
24902;DHT22;31328;51.402;0.016;2023-05-10T05:58:06;12.50;99.90
24902;DHT22;31328;51.402;0.016;2023-05-10T06:00:32;12.50;99.90
24902;DHT22;31328;51.402;0.016;2023-05-10T06:02:59;12.50;99.90
24902;DHT22;31328;51.402;0.016;2023-05-10T06:05:25;12.60;99.90
24902;DHT22;31328;51.402;0.016;2023-05-10T06:07:51;12.60;99.90
24902;DHT22;31328;51.402;0.016;2023-05-10T06:10:18;12.60;99.90
24902;DHT22;31328;51.402;0.016;2023-05-10T06:12:44;12.60;99.90
24902;DHT22;31328;51.402;0.016;2023-05-10T06:15:11;12.60;99.90
24902;DHT22;31328;51.402;0.016;2023-05-10T06:17:37;12.60;99.90
24902;DHT22;31328;51.402;0.016;2023-05-10T06:20:05;12.70;99.90
24902;DHT22;31328;51.402;0.016;2023-05-10T06:22:32;12.70;99.90
24902;DHT22;31328;51.402;0.016;2023-05-10T06:24:58;12.70;99.90
24902;DHT22;31328;51.402;0.016;2023-05-10T06:27:24;12.70;99.90
24902;DHT22;31328;51.402;0.016;2023-05-10T06:29:51;12.70;99.90
24902;DHT22;31328;51.402;0.016;2023-05-10T06:32:17;12.60;99.90
24902;DHT22;31328;51.402;0.016;2023-05-10T06:34:44;12.70;99.90
24902;DHT22;31328;51.402;0.016;2023-05-10T06:37:10;12.70;99.90
24902;DHT22;31328;51.402;0.016;2023-05-10T06:39:37;12.70;99.90
24902;DHT22;31328;51.402;0.016;2023-05-10T06:42:03;12.80;99.90
24902;DHT22;31328;51.402;0.016;2023-05-10T06:44:32;12.80;99.90
24902;DHT22;31328;51.402;0.016;2023-05-10T06:46:58;12.80;99.90
24902;DHT22;31328;51.402;0.016;2023-05-10T06:49:25;12.90;99.90
24902;DHT22;31328;51.402;0.016;2023-05-10T06:51:51;12.90;99.90
24902;DHT22;31328;51.402;0.016;2023-05-10T06:54:17;13.00;99.90
24902;DHT22;31328;51.402;0.016;2023-05-10T06:56:44;13.00;99.90
24902;DHT22;31328;51.402;0.016;2023-05-10T06:59:10;13.10;99.90
24902;DHT22;31328;51.402;0.016;2023-05-10T07:01:36;13.10;99.90
24902;DHT22;31328;51.402;0.016;2023-05-10T07:04:03;13.10;99.90
24902;DHT22;31328;51.402;0.016;2023-05-10T07:06:30;13.20;99.90
24902;DHT22;31328;51.402;0.016;2023-05-10T07:08:56;13.20;99.90
24902;DHT22;31328;51.402;0.016;2023-05-10T07:11:23;13.40;99.90
24902;DHT22;31328;51.402;0.016;2023-05-10T07:13:49;13.40;99.90
24902;DHT22;31328;51.402;0.016;2023-05-10T07:16:16;13.50;99.90
24902;DHT22;31328;51.402;0.016;2023-05-10T07:18:42;13.50;99.90
24902;DHT22;31328;51.402;0.016;2023-05-10T07:21:08;13.50;99.90
24902;DHT22;31328;51.402;0.016;2023-05-10T07:23:35;13.50;99.90
24902;DHT22;31328;51.402;0.016;2023-05-10T07:26:01;13.50;99.90
24902;DHT22;31328;51.402;0.016;2023-05-10T07:28:28;13.60;99.90
24902;DHT22;31328;51.402;0.016;2023-05-10T07:30:54;13.60;99.90
24902;DHT22;31328;51.402;0.016;2023-05-10T07:33:21;13.60;99.90
24902;DHT22;31328;51.402;0.016;2023-05-10T07:35:47;13.70;99.90
24902;DHT22;31328;51.402;0.016;2023-05-10T07:38:13;13.70;99.90
24902;DHT22;31328;51.402;0.016;2023-05-10T07:40:40;13.70;99.90
24902;DHT22;31328;51.402;0.016;2023-05-10T07:43:10;13.70;99.90
24902;DHT22;31328;51.402;0.016;2023-05-10T07:45:44;13.70;99.90
24902;DHT22;31328;51.402;0.016;2023-05-10T07:48:10;13.70;99.90
24902;DHT22;31328;51.402;0.016;2023-05-10T07:50:37;13.70;99.90
24902;DHT22;31328;51.402;0.016;2023-05-10T07:53:03;13.70;99.90
24902;DHT22;31328;51.402;0.016;2023-05-10T07:55:29;13.70;99.90
24902;DHT22;31328;51.402;0.016;2023-05-10T07:57:56;13.70;99.90
24902;DHT22;31328;51.402;0.016;2023-05-10T08:00:22;13.80;99.90
24902;DHT22;31328;51.402;0.016;2023-05-10T08:02:49;13.70;99.90
24902;DHT22;31328;51.402;0.016;2023-05-10T08:05:15;13.80;99.90
24902;DHT22;31328;51.402;0.016;2023-05-10T08:07:42;13.80;99.90
24902;DHT22;31328;51.402;0.016;2023-05-10T08:10:09;13.80;99.90
24902;DHT22;31328;51.402;0.016;2023-05-10T08:12:35;13.90;99.90
24902;DHT22;31328;51.402;0.016;2023-05-10T08:15:02;13.90;99.90
24902;DHT22;31328;51.402;0.016;2023-05-10T08:17:28;14.00;99.90
24902;DHT22;31328;51.402;0.016;2023-05-10T08:19:55;14.00;99.90
24902;DHT22;31328;51.402;0.016;2023-05-10T08:22:21;14.10;99.90
24902;DHT22;31328;51.402;0.016;2023-05-10T08:24:48;14.10;99.90
24902;DHT22;31328;51.402;0.016;2023-05-10T08:27:14;14.20;99.90
24902;DHT22;31328;51.402;0.016;2023-05-10T08:29:41;14.30;99.90
24902;DHT22;31328;51.402;0.016;2023-05-10T08:32:07;14.40;99.90
24902;DHT22;31328;51.402;0.016;2023-05-10T08:34:33;14.60;99.90
24902;DHT22;31328;51.402;0.016;2023-05-10T08:37:00;14.70;99.90
24902;DHT22;31328;51.402;0.016;2023-05-10T08:39:26;14.90;99.90
24902;DHT22;31328;51.402;0.016;2023-05-10T08:41:54;15.00;99.90
24902;DHT22;31328;51.402;0.016;2023-05-10T08:44:25;15.30;99.90
24902;DHT22;31328;51.402;0.016;2023-05-10T08:46:53;15.30;99.90
24902;DHT22;31328;51.402;0.016;2023-05-10T08:49:20;15.50;99.90
24902;DHT22;31328;51.402;0.016;2023-05-10T08:51:51;15.60;99.90
24902;DHT22;31328;51.402;0.016;2023-05-10T08:54:21;15.80;99.90
24902;DHT22;31328;51.402;0.016;2023-05-10T08:56:48;15.90;99.90
24902;DHT22;31328;51.402;0.016;2023-05-10T08:59:14;16.00;99.90
24902;DHT22;31328;51.402;0.016;2023-05-10T09:01:43;16.10;99.90
24902;DHT22;31328;51.402;0.016;2023-05-10T09:04:11;16.30;99.90
24902;DHT22;31328;51.402;0.016;2023-05-10T09:06:38;16.40;99.90
24902;DHT22;31328;51.402;0.016;2023-05-10T09:09:05;16.50;99.90
24902;DHT22;31328;51.402;0.016;2023-05-10T09:11:31;16.50;99.90
24902;DHT22;31328;51.402;0.016;2023-05-10T09:13:58;16.60;99.90
24902;DHT22;31328;51.402;0.016;2023-05-10T09:16:24;16.70;99.90
24902;DHT22;31328;51.402;0.016;2023-05-10T09:18:51;16.70;99.90
24902;DHT22;31328;51.402;0.016;2023-05-10T09:21:19;16.80;99.90
24902;DHT22;31328;51.402;0.016;2023-05-10T09:23:47;16.90;99.90
24902;DHT22;31328;51.402;0.016;2023-05-10T09:26:13;17.00;99.90
24902;DHT22;31328;51.402;0.016;2023-05-10T09:28:56;17.10;99.90
24902;DHT22;31328;51.402;0.016;2023-05-10T09:31:23;17.10;99.90
24902;DHT22;31328;51.402;0.016;2023-05-10T09:33:52;17.20;99.90
24902;DHT22;31328;51.402;0.016;2023-05-10T09:36:18;17.30;99.90
24902;DHT22;31328;51.402;0.016;2023-05-10T09:38:49;17.30;99.90
24902;DHT22;31328;51.402;0.016;2023-05-10T09:41:21;17.40;99.90
24902;DHT22;31328;51.402;0.016;2023-05-10T09:43:47;17.50;99.90
24902;DHT22;31328;51.402;0.016;2023-05-10T09:46:15;17.60;99.90
24902;DHT22;31328;51.402;0.016;2023-05-10T09:48:46;17.70;99.90
24902;DHT22;31328;51.402;0.016;2023-05-10T09:51:20;17.80;99.90
24902;DHT22;31328;51.402;0.016;2023-05-10T09:53:47;17.80;99.90
24902;DHT22;31328;51.402;0.016;2023-05-10T09:56:35;17.90;99.90
24902;DHT22;31328;51.402;0.016;2023-05-10T09:59:03;18.00;99.90
24902;DHT22;31328;51.402;0.016;2023-05-10T10:01:31;18.10;99.90
24902;DHT22;31328;51.402;0.016;2023-05-10T10:03:58;18.20;99.90
24902;DHT22;31328;51.402;0.016;2023-05-10T10:06:24;18.30;99.60
24902;DHT22;31328;51.402;0.016;2023-05-10T10:08:51;18.40;99.10
24902;DHT22;31328;51.402;0.016;2023-05-10T10:11:19;18.40;98.90
24902;DHT22;31328;51.402;0.016;2023-05-10T10:13:45;18.50;99.00
24902;DHT22;31328;51.402;0.016;2023-05-10T10:16:12;18.50;99.00
24902;DHT22;31328;51.402;0.016;2023-05-10T10:18:39;18.60;98.60
24902;DHT22;31328;51.402;0.016;2023-05-10T10:21:07;18.60;98.50
24902;DHT22;31328;51.402;0.016;2023-05-10T10:23:37;18.70;98.40
24902;DHT22;31328;51.402;0.016;2023-05-10T10:26:04;18.70;98.30
24902;DHT22;31328;51.402;0.016;2023-05-10T10:31:32;18.80;97.90
24902;DHT22;31328;51.402;0.016;2023-05-10T10:34:05;18.90;97.60
24902;DHT22;31328;51.402;0.016;2023-05-10T10:36:46;18.90;98.00
24902;DHT22;31328;51.402;0.016;2023-05-10T10:39:14;18.90;97.60
24902;DHT22;31328;51.402;0.016;2023-05-10T10:41:55;18.90;97.80
24902;DHT22;31328;51.402;0.016;2023-05-10T10:55:02;19.30;96.80
24902;DHT22;31328;51.402;0.016;2023-05-10T10:57:54;19.30;96.40
24902;DHT22;31328;51.402;0.016;2023-05-10T11:00:31;19.30;96.50
24902;DHT22;31328;51.402;0.016;2023-05-10T11:03:05;19.30;96.00
24902;DHT22;31328;51.402;0.016;2023-05-10T11:11:04;19.10;95.60
24902;DHT22;31328;51.402;0.016;2023-05-10T11:18:37;19.40;95.50
24902;DHT22;31328;51.402;0.016;2023-05-10T11:21:03;19.50;95.40
24902;DHT22;31328;51.402;0.016;2023-05-10T11:26:14;19.50;94.20
24902;DHT22;31328;51.402;0.016;2023-05-10T11:28:45;19.60;94.40
24902;DHT22;31328;51.402;0.016;2023-05-10T11:31:16;19.60;94.40
24902;DHT22;31328;51.402;0.016;2023-05-10T11:33:47;19.70;94.10
24902;DHT22;31328;51.402;0.016;2023-05-10T11:36:16;19.80;94.00
24902;DHT22;31328;51.402;0.016;2023-05-10T11:38:43;19.90;93.80
24902;DHT22;31328;51.402;0.016;2023-05-10T11:41:10;20.00;93.50
24902;DHT22;31328;51.402;0.016;2023-05-10T11:43:42;20.10;93.20
24902;DHT22;31328;51.402;0.016;2023-05-10T11:46:11;20.20;93.00
24902;DHT22;31328;51.402;0.016;2023-05-10T11:48:41;20.20;92.80
24902;DHT22;31328;51.402;0.016;2023-05-10T11:51:09;20.40;92.70
24902;DHT22;31328;51.402;0.016;2023-05-10T11:53:36;20.50;92.30
24902;DHT22;31328;51.402;0.016;2023-05-10T11:56:06;20.60;92.10
24902;DHT22;31328;51.402;0.016;2023-05-10T11:58:34;20.60;91.90
24902;DHT22;31328;51.402;0.016;2023-05-10T12:01:00;20.60;91.70
24902;DHT22;31328;51.402;0.016;2023-05-10T12:03:27;20.50;91.30
24902;DHT22;31328;51.402;0.016;2023-05-10T12:05:58;20.50;91.20
24902;DHT22;31328;51.402;0.016;2023-05-10T12:08:26;20.40;91.10
24902;DHT22;31328;51.402;0.016;2023-05-10T12:11:16;20.30;91.00
24902;DHT22;31328;51.402;0.016;2023-05-10T12:13:43;20.10;90.80
24902;DHT22;31328;51.402;0.016;2023-05-10T12:18:45;19.90;91.00
24902;DHT22;31328;51.402;0.016;2023-05-10T12:21:15;19.80;91.20
24902;DHT22;31328;51.402;0.016;2023-05-10T12:23:41;19.70;91.00
24902;DHT22;31328;51.402;0.016;2023-05-10T12:26:11;19.60;91.00
24902;DHT22;31328;51.402;0.016;2023-05-10T12:28:38;19.60;90.80
24902;DHT22;31328;51.402;0.016;2023-05-10T12:31:06;19.40;90.60
24902;DHT22;31328;51.402;0.016;2023-05-10T12:33:39;19.40;90.60
24902;DHT22;31328;51.402;0.016;2023-05-10T12:36:09;19.30;90.60
24902;DHT22;31328;51.402;0.016;2023-05-10T12:38:40;19.20;90.90
24902;DHT22;31328;51.402;0.016;2023-05-10T12:41:10;19.10;90.80
24902;DHT22;31328;51.402;0.016;2023-05-10T12:43:37;19.10;90.90
24902;DHT22;31328;51.402;0.016;2023-05-10T12:46:12;19.10;90.90
24902;DHT22;31328;51.402;0.016;2023-05-10T12:48:41;19.10;90.90
24902;DHT22;31328;51.402;0.016;2023-05-10T12:51:08;19.10;91.00
24902;DHT22;31328;51.402;0.016;2023-05-10T12:53:39;19.10;91.00
24902;DHT22;31328;51.402;0.016;2023-05-10T12:56:06;19.20;90.90
24902;DHT22;31328;51.402;0.016;2023-05-10T12:58:34;19.20;90.70
24902;DHT22;31328;51.402;0.016;2023-05-10T13:01:00;19.30;90.40
24902;DHT22;31328;51.402;0.016;2023-05-10T13:03:27;19.30;90.40
24902;DHT22;31328;51.402;0.016;2023-05-10T13:05:53;19.30;90.50
24902;DHT22;31328;51.402;0.016;2023-05-10T13:08:19;19.20;90.40
24902;DHT22;31328;51.402;0.016;2023-05-10T13:10:46;19.20;90.70
24902;DHT22;31328;51.402;0.016;2023-05-10T13:13:12;19.20;91.00
24902;DHT22;31328;51.402;0.016;2023-05-10T13:15:38;19.20;91.20
24902;DHT22;31328;51.402;0.016;2023-05-10T13:18:05;19.30;91.40
24902;DHT22;31328;51.402;0.016;2023-05-10T13:20:31;19.40;91.40
24902;DHT22;31328;51.402;0.016;2023-05-10T13:22:57;19.50;90.90
24902;DHT22;31328;51.402;0.016;2023-05-10T13:25:24;19.60;90.50
24902;DHT22;31328;51.402;0.016;2023-05-10T13:27:50;19.80;90.30
24902;DHT22;31328;51.402;0.016;2023-05-10T13:30:17;19.90;90.10
24902;DHT22;31328;51.402;0.016;2023-05-10T13:32:43;20.00;89.70
24902;DHT22;31328;51.402;0.016;2023-05-10T13:35:09;20.10;89.80
24902;DHT22;31328;51.402;0.016;2023-05-10T13:37:36;20.00;89.50
24902;DHT22;31328;51.402;0.016;2023-05-10T13:40:03;19.90;89.80
24902;DHT22;31328;51.402;0.016;2023-05-10T13:42:31;19.80;90.00
24902;DHT22;31328;51.402;0.016;2023-05-10T13:45:00;19.80;90.10
24902;DHT22;31328;51.402;0.016;2023-05-10T13:47:28;19.70;90.50
24902;DHT22;31328;51.402;0.016;2023-05-10T13:49:55;19.60;90.40
24902;DHT22;31328;51.402;0.016;2023-05-10T13:52:22;19.60;90.30
24902;DHT22;31328;51.402;0.016;2023-05-10T13:54:48;19.60;90.40
24902;DHT22;31328;51.402;0.016;2023-05-10T13:57:14;19.60;90.40
24902;DHT22;31328;51.402;0.016;2023-05-10T13:59:42;19.60;90.20
24902;DHT22;31328;51.402;0.016;2023-05-10T14:02:09;19.50;90.40
24902;DHT22;31328;51.402;0.016;2023-05-10T14:04:35;19.40;90.90
24902;DHT22;31328;51.402;0.016;2023-05-10T14:07:01;19.20;91.30
24902;DHT22;31328;51.402;0.016;2023-05-10T14:09:28;19.00;91.60
24902;DHT22;31328;51.402;0.016;2023-05-10T14:11:54;18.80;91.70
24902;DHT22;31328;51.402;0.016;2023-05-10T14:14:21;18.70;91.80
24902;DHT22;31328;51.402;0.016;2023-05-10T14:16:48;18.50;92.00
24902;DHT22;31328;51.402;0.016;2023-05-10T14:19:14;18.30;92.40
24902;DHT22;31328;51.402;0.016;2023-05-10T14:21:41;18.20;92.80
24902;DHT22;31328;51.402;0.016;2023-05-10T14:24:07;17.90;93.50
24902;DHT22;31328;51.402;0.016;2023-05-10T14:26:33;17.80;94.30
24902;DHT22;31328;51.402;0.016;2023-05-10T14:29:00;17.60;94.90
24902;DHT22;31328;51.402;0.016;2023-05-10T14:31:27;17.50;95.60
24902;DHT22;31328;51.402;0.016;2023-05-10T14:33:53;17.30;96.20
24902;DHT22;31328;51.402;0.016;2023-05-10T14:36:20;17.20;97.00
24902;DHT22;31328;51.402;0.016;2023-05-10T14:38:46;17.10;97.40
24902;DHT22;31328;51.402;0.016;2023-05-10T14:41:12;17.00;98.00
24902;DHT22;31328;51.402;0.016;2023-05-10T14:43:41;17.00;98.20
24902;DHT22;31328;51.402;0.016;2023-05-10T14:46:07;17.10;98.70
24902;DHT22;31328;51.402;0.016;2023-05-10T14:48:34;17.20;99.00
24902;DHT22;31328;51.402;0.016;2023-05-10T14:51:01;17.30;99.30
24902;DHT22;31328;51.402;0.016;2023-05-10T14:53:27;17.40;99.50
24902;DHT22;31328;51.402;0.016;2023-05-10T14:55:54;17.60;99.80
24902;DHT22;31328;51.402;0.016;2023-05-10T14:58:20;17.80;99.80
24902;DHT22;31328;51.402;0.016;2023-05-10T15:00:47;17.90;99.60
24902;DHT22;31328;51.402;0.016;2023-05-10T15:03:13;18.10;99.40
24902;DHT22;31328;51.402;0.016;2023-05-10T15:05:39;18.20;99.10
24902;DHT22;31328;51.402;0.016;2023-05-10T15:08:06;18.30;99.00
24902;DHT22;31328;51.402;0.016;2023-05-10T15:10:33;18.30;98.90
24902;DHT22;31328;51.402;0.016;2023-05-10T15:12:59;18.30;98.50
24902;DHT22;31328;51.402;0.016;2023-05-10T15:15:25;18.30;98.20
24902;DHT22;31328;51.402;0.016;2023-05-10T15:17:52;18.30;98.20
24902;DHT22;31328;51.402;0.016;2023-05-10T15:20:18;18.20;98.00
24902;DHT22;31328;51.402;0.016;2023-05-10T15:22:45;18.10;98.10
24902;DHT22;31328;51.402;0.016;2023-05-10T15:25:11;17.90;98.20
24902;DHT22;31328;51.402;0.016;2023-05-10T15:27:37;17.80;98.10
24902;DHT22;31328;51.402;0.016;2023-05-10T15:30:04;17.70;98.40
24902;DHT22;31328;51.402;0.016;2023-05-10T15:32:31;17.50;98.40
24902;DHT22;31328;51.402;0.016;2023-05-10T15:34:57;17.40;98.70
24902;DHT22;31328;51.402;0.016;2023-05-10T15:37:24;17.30;98.90
24902;DHT22;31328;51.402;0.016;2023-05-10T15:39:50;17.30;99.30
24902;DHT22;31328;51.402;0.016;2023-05-10T15:42:19;17.30;99.70
24902;DHT22;31328;51.402;0.016;2023-05-10T15:44:45;17.50;99.90
24902;DHT22;31328;51.402;0.016;2023-05-10T15:47:16;17.60;99.90
24902;DHT22;31328;51.402;0.016;2023-05-10T15:49:42;17.70;99.90
24902;DHT22;31328;51.402;0.016;2023-05-10T15:52:09;17.90;99.50
24902;DHT22;31328;51.402;0.016;2023-05-10T15:54:35;18.00;99.30
24902;DHT22;31328;51.402;0.016;2023-05-10T15:57:01;18.20;99.00
24902;DHT22;31328;51.402;0.016;2023-05-10T15:59:28;18.20;98.50
24902;DHT22;31328;51.402;0.016;2023-05-10T16:01:55;18.30;98.10
24902;DHT22;31328;51.402;0.016;2023-05-10T16:04:22;18.30;98.00
24902;DHT22;31328;51.402;0.016;2023-05-10T16:06:48;18.30;97.20
24902;DHT22;31328;51.402;0.016;2023-05-10T16:09:15;18.20;97.40
24902;DHT22;31328;51.402;0.016;2023-05-10T16:11:42;18.10;97.30
24902;DHT22;31328;51.402;0.016;2023-05-10T16:14:08;17.90;97.20
24902;DHT22;31328;51.402;0.016;2023-05-10T16:16:35;17.80;97.10